createdAt,value
2023-02-11T00:01:32.565Z,89.02
2023-02-11T00:03:59.466Z,89.04
2023-02-11T00:06:29.118Z,88.86
2023-02-11T00:08:56.034Z,89.16
2023-02-11T00:11:22.732Z,89.05
2023-02-11T00:13:49.268Z,88.79
2023-02-11T00:16:19.955Z,89.03
2023-02-11T00:18:46.893Z,89.26
2023-02-11T00:21:14.677Z,89.01
2023-02-11T00:23:41.163Z,89.03
2023-02-11T00:26:21.451Z,89.67
2023-02-11T00:28:48.554Z,89.83
2023-02-11T00:31:15.671Z,88.95
2023-02-11T00:33:42.233Z,89.32
2023-02-11T00:36:10.212Z,88.93
2023-02-11T00:38:36.644Z,89.66
2023-02-11T00:41:03.078Z,88.75
2023-02-11T00:43:29.476Z,88.72
2023-02-11T00:45:55.943Z,88.10
2023-02-11T00:48:22.444Z,88.41
2023-02-11T00:50:48.894Z,88.01
2023-02-11T00:53:16.558Z,88.45
2023-02-11T00:55:42.961Z,88.59
2023-02-11T00:58:09.384Z,89.08
2023-02-11T01:00:35.830Z,89.55
2023-02-11T01:03:02.225Z,89.42
2023-02-11T01:05:28.962Z,89.44
2023-02-11T01:07:55.379Z,89.61
2023-02-11T01:10:21.865Z,90.04
2023-02-11T01:12:48.378Z,89.94
2023-02-11T01:15:16.461Z,90.38
2023-02-11T01:17:42.913Z,90.87
2023-02-11T01:20:14.057Z,90.61
2023-02-11T01:22:43.132Z,90.70
2023-02-11T01:25:09.878Z,91.10
2023-02-11T01:27:36.684Z,91.23
2023-02-11T01:30:03.795Z,92.04
2023-02-11T01:32:30.262Z,91.56
2023-02-11T01:34:56.732Z,91.09
2023-02-11T01:37:23.256Z,90.40
2023-02-11T01:39:49.792Z,90.42
2023-02-11T01:42:17.157Z,90.83
2023-02-11T01:44:43.596Z,90.33
2023-02-11T01:47:10.376Z,90.09
2023-02-11T01:49:39.632Z,90.27
2023-02-11T01:52:09.180Z,89.95
2023-02-11T01:54:58.631Z,90.79
2023-02-11T01:57:26.617Z,90.91
2023-02-11T02:00:11.923Z,91.09
2023-02-11T02:02:47.638Z,90.83
2023-02-11T02:05:35.644Z,91.18
2023-02-11T02:08:11.000Z,91.25
2023-02-11T02:10:40.629Z,90.93
2023-02-11T02:13:07.058Z,90.77
2023-02-11T02:15:34.361Z,90.42
2023-02-11T02:18:11.805Z,90.27
2023-02-11T02:20:56.972Z,90.11
2023-02-11T02:23:26.465Z,90.33
2023-02-11T02:25:52.896Z,90.52
2023-02-11T02:28:39.521Z,91.12
2023-02-11T02:31:09.105Z,90.94
2023-02-11T02:33:54.240Z,91.17
2023-02-11T02:36:26.859Z,91.80
2023-02-11T02:38:58.175Z,92.14
2023-02-11T02:41:27.996Z,91.93
2023-02-11T02:43:54.865Z,91.59
2023-02-11T02:46:26.588Z,91.81
2023-02-11T02:48:54.096Z,92.20
2023-02-11T02:51:27.420Z,92.39
2023-02-11T02:53:53.792Z,91.25
2023-02-11T02:56:40.482Z,91.63
2023-02-11T02:59:21.502Z,92.45
2023-02-11T03:08:44.294Z,92.05
2023-02-11T03:11:11.803Z,93.18
2023-02-11T03:13:39.559Z,93.36
2023-02-11T03:16:12.128Z,92.38
2023-02-11T03:18:40.983Z,93.28
2023-02-11T03:21:08.838Z,92.56
2023-02-11T03:23:44.416Z,93.23
2023-02-11T03:26:14.933Z,93.56
2023-02-11T03:28:48.650Z,93.99
2023-02-11T03:31:24.358Z,93.20
2023-02-11T03:34:02.386Z,93.27
2023-02-11T03:36:48.982Z,94.09
2023-02-11T03:39:19.732Z,94.24
2023-02-11T03:41:48.481Z,94.61
2023-02-11T03:44:16.035Z,95.16
2023-02-11T03:46:44.293Z,94.08
2023-02-11T03:49:12.313Z,94.62
2023-02-11T03:51:39.294Z,94.74
2023-02-11T03:54:09.037Z,95.29
2023-02-11T03:56:45.361Z,94.83
2023-02-11T03:59:11.771Z,94.90
2023-02-11T04:01:38.203Z,94.93
2023-02-11T04:04:04.710Z,95.45
2023-02-11T04:06:31.043Z,96.16
2023-02-11T04:08:57.439Z,96.38
2023-02-11T04:11:23.784Z,96.12
2023-02-11T04:13:50.210Z,97.04
2023-02-11T04:16:16.725Z,97.75
2023-02-11T04:18:43.105Z,96.23
2023-02-11T04:21:09.465Z,96.10
2023-02-11T04:23:35.923Z,97.26
2023-02-11T04:26:02.360Z,96.90
2023-02-11T04:28:29.705Z,97.24
2023-02-11T04:30:56.616Z,98.00
2023-02-11T04:33:23.258Z,99.92
2023-02-11T04:35:49.884Z,99.03
2023-02-11T04:38:16.534Z,100.00
2023-02-11T04:40:42.985Z,100.00
2023-02-11T04:43:09.462Z,100.00
2023-02-11T04:45:36.054Z,100.00
2023-02-11T04:48:03.761Z,100.00
2023-02-11T04:50:30.412Z,100.00
2023-02-11T04:52:56.758Z,100.00
2023-02-11T04:55:23.152Z,100.00
2023-02-11T04:57:49.538Z,100.00
2023-02-11T05:00:16.165Z,100.00
2023-02-11T05:02:42.580Z,100.00
2023-02-11T05:05:09.017Z,100.00
2023-02-11T05:07:35.383Z,100.00
2023-02-11T05:10:01.830Z,100.00
2023-02-11T05:12:28.222Z,100.00
2023-02-11T05:14:54.619Z,100.00
2023-02-11T05:17:21.006Z,100.00
2023-02-11T05:19:47.361Z,100.00
2023-02-11T05:22:14.222Z,100.00
2023-02-11T05:24:40.691Z,100.00
2023-02-11T05:27:08.419Z,100.00
2023-02-11T05:29:34.850Z,100.00
2023-02-11T05:32:01.237Z,100.00
2023-02-11T05:34:27.647Z,100.00
2023-02-11T05:36:54.000Z,100.00
2023-02-11T05:39:20.463Z,100.00
2023-02-11T05:41:46.785Z,100.00
2023-02-11T05:44:13.200Z,100.00
2023-02-11T05:46:39.685Z,100.00
2023-02-11T05:49:06.145Z,100.00
2023-02-11T05:51:32.510Z,100.00
2023-02-11T05:53:58.886Z,100.00
2023-02-11T05:56:25.220Z,100.00
2023-02-11T05:58:51.741Z,100.00
2023-02-11T06:01:18.171Z,100.00
2023-02-11T06:03:44.667Z,100.00
2023-02-11T06:06:12.279Z,100.00
2023-02-11T06:08:39.384Z,100.00
2023-02-11T06:11:05.867Z,100.00
2023-02-11T06:13:32.226Z,100.00
2023-02-11T06:15:59.529Z,100.00
2023-02-11T06:18:26.065Z,100.00
2023-02-11T06:20:52.731Z,100.00
2023-02-11T06:23:19.112Z,100.00
2023-02-11T06:25:45.516Z,100.00
2023-02-11T06:28:11.931Z,100.00
2023-02-11T06:30:38.373Z,100.00
2023-02-11T06:33:04.879Z,100.00
2023-02-11T06:35:31.363Z,100.00
2023-02-11T06:38:09.758Z,100.00
2023-02-11T06:40:36.209Z,100.00
2023-02-11T06:43:02.557Z,100.00
2023-02-11T06:45:28.975Z,100.00
2023-02-11T06:47:55.508Z,100.00
2023-02-11T06:50:21.903Z,100.00
2023-02-11T06:52:48.296Z,100.00
2023-02-11T06:55:14.981Z,100.00
2023-02-11T06:57:41.494Z,100.00
2023-02-11T07:07:25.875Z,100.00
2023-02-11T07:09:52.309Z,100.00
2023-02-11T07:12:18.724Z,100.00
2023-02-11T07:14:45.164Z,100.00
2023-02-11T07:17:11.552Z,100.00
2023-02-11T07:19:37.988Z,100.00
2023-02-11T07:22:04.315Z,100.00
2023-02-11T07:24:30.736Z,100.00
2023-02-11T07:26:57.094Z,100.00
2023-02-11T07:29:23.465Z,100.00
2023-02-11T07:31:58.882Z,100.00
2023-02-11T07:34:25.664Z,100.00
2023-02-11T07:36:52.147Z,100.00
2023-02-11T07:39:20.115Z,100.00
2023-02-11T07:41:48.995Z,100.00
2023-02-11T07:44:15.650Z,100.00
2023-02-11T07:46:45.724Z,100.00
2023-02-11T07:49:12.552Z,100.00
2023-02-11T07:51:54.052Z,100.00
2023-02-11T07:54:20.660Z,100.00
2023-02-11T07:56:47.396Z,100.00
2023-02-11T07:59:13.992Z,100.00
2023-02-11T08:01:40.482Z,100.00
2023-02-11T08:04:09.506Z,100.00
2023-02-11T08:07:05.183Z,100.00
2023-02-11T08:09:34.357Z,100.00
2023-02-11T08:12:01.175Z,100.00
2023-02-11T08:14:28.635Z,100.00
2023-02-11T08:16:55.155Z,100.00
2023-02-11T08:19:21.717Z,100.00
2023-02-11T08:21:48.195Z,100.00
2023-02-11T08:24:14.733Z,100.00
2023-02-11T08:26:41.303Z,100.00
2023-02-11T08:29:15.084Z,100.00
2023-02-11T08:31:42.576Z,100.00
2023-02-11T08:34:11.095Z,100.00
2023-02-11T08:36:38.450Z,100.00
2023-02-11T08:39:18.466Z,100.00
2023-02-11T08:41:51.020Z,100.00
2023-02-11T08:44:18.620Z,100.00
2023-02-11T08:46:45.178Z,100.00
2023-02-11T08:49:11.666Z,100.00
2023-02-11T08:51:38.141Z,100.00
2023-02-11T08:54:05.115Z,100.00
2023-02-11T08:56:33.209Z,100.00
2023-02-11T08:58:59.702Z,100.00
2023-02-11T09:01:27.707Z,100.00
2023-02-11T09:03:56.256Z,100.00
2023-02-11T09:06:23.195Z,100.00
2023-02-11T09:08:50.485Z,100.00
2023-02-11T09:11:17.897Z,100.00
2023-02-11T09:13:44.690Z,100.00
2023-02-11T09:16:19.492Z,100.00
2023-02-11T09:18:46.045Z,100.00
2023-02-11T09:21:12.966Z,100.00
2023-02-11T09:23:41.816Z,100.00
2023-02-11T09:26:09.657Z,100.00
2023-02-11T09:28:36.303Z,100.00
2023-02-11T09:31:10.249Z,100.00
2023-02-11T09:33:37.535Z,100.00
2023-02-11T09:36:07.228Z,100.00
2023-02-11T09:38:33.683Z,100.00
2023-02-11T09:41:02.721Z,100.00
2023-02-11T09:43:44.569Z,100.00
2023-02-11T09:46:15.000Z,100.00
2023-02-11T09:48:42.994Z,100.00
2023-02-11T09:51:31.868Z,100.00
2023-02-11T09:54:02.643Z,100.00
2023-02-11T09:56:31.016Z,100.00
2023-02-11T09:58:57.781Z,100.00
2023-02-11T10:01:39.891Z,100.00
2023-02-11T10:04:12.488Z,100.00
2023-02-11T10:06:44.710Z,100.00
2023-02-11T10:09:24.266Z,100.00
2023-02-11T10:12:09.457Z,100.00
2023-02-11T10:14:50.688Z,100.00
2023-02-11T10:17:35.983Z,100.00
2023-02-11T10:20:08.589Z,100.00
2023-02-11T10:23:01.537Z,100.00
2023-02-11T10:25:33.755Z,100.00
2023-02-11T10:28:01.387Z,100.00
2023-02-11T10:30:33.006Z,100.00
2023-02-11T10:33:18.130Z,100.00
2023-02-11T10:35:45.712Z,100.00
2023-02-11T10:38:14.542Z,100.00
2023-02-11T10:40:47.663Z,100.00
2023-02-11T10:43:38.818Z,100.00
2023-02-11T10:47:20.124Z,100.00
2023-02-11T10:50:03.837Z,100.00
2023-02-11T10:52:41.588Z,100.00
2023-02-11T10:59:12.555Z,100.00
2023-02-11T11:11:38.058Z,100.00
2023-02-11T11:14:40.407Z,100.00
2023-02-11T11:17:49.111Z,100.00
2023-02-11T11:20:33.107Z,100.00
2023-02-11T11:23:18.557Z,100.00
2023-02-11T11:25:51.140Z,100.00
2023-02-11T11:28:39.195Z,100.00
2023-02-11T11:31:26.850Z,100.00
2023-02-11T11:33:55.395Z,100.00
2023-02-11T11:36:25.004Z,100.00
2023-02-11T11:38:56.750Z,100.00
2023-02-11T11:41:36.604Z,100.00
2023-02-11T11:44:09.476Z,100.00
2023-02-11T11:46:36.890Z,100.00
2023-02-11T11:49:17.923Z,100.00
2023-02-11T11:51:53.660Z,100.00
2023-02-11T11:54:20.707Z,100.00
2023-02-11T11:57:00.041Z,100.00
2023-02-11T11:59:27.295Z,100.00
2023-02-11T12:02:08.516Z,100.00
2023-02-11T12:05:00.581Z,100.00
2023-02-11T12:10:44.689Z,100.00
2023-02-11T12:20:27.101Z,100.00
2023-02-11T12:23:08.102Z,100.00
2023-02-11T12:25:41.915Z,100.00
2023-02-11T12:31:55.599Z,100.00
2023-02-11T12:34:46.757Z,100.00
2023-02-11T12:37:28.294Z,100.00
2023-02-11T12:40:44.101Z,100.00
2023-02-11T12:43:20.869Z,100.00
2023-02-11T12:46:02.759Z,100.00
2023-02-11T12:49:05.941Z,100.00
2023-02-11T12:51:53.656Z,100.00
2023-02-11T12:54:55.327Z,100.00
2023-02-11T12:57:28.227Z,100.00
2023-02-11T12:59:58.171Z,100.00
2023-02-11T13:02:28.625Z,100.00
2023-02-11T13:05:02.297Z,100.00
2023-02-11T13:07:33.345Z,100.00
2023-02-11T13:10:19.997Z,100.00
2023-02-11T13:13:07.110Z,100.00
2023-02-11T13:15:42.145Z,100.00
2023-02-11T13:18:53.787Z,100.00
2023-02-11T13:21:27.051Z,100.00
2023-02-11T13:24:16.540Z,100.00
2023-02-11T13:26:52.696Z,100.00
2023-02-11T13:29:26.363Z,100.00
2023-02-11T13:31:57.472Z,100.00
2023-02-11T13:37:17.650Z,100.00
2023-02-11T13:39:55.616Z,100.00
2023-02-11T13:42:22.260Z,100.00
2023-02-11T13:44:48.807Z,100.00
2023-02-11T13:47:26.330Z,100.00
2023-02-11T13:49:56.610Z,100.00
2023-02-11T13:52:34.371Z,100.00
2023-02-11T13:55:20.096Z,100.00
2023-02-11T13:58:06.642Z,100.00
2023-02-11T14:00:33.178Z,100.00
2023-02-11T14:03:32.448Z,100.00
2023-02-11T14:06:32.811Z,100.00
2023-02-11T14:09:17.856Z,100.00
2023-02-11T14:11:44.480Z,100.00
2023-02-11T14:14:19.359Z,100.00
2023-02-11T14:17:07.616Z,100.00
2023-02-11T14:19:44.337Z,100.00
2023-02-11T14:23:25.992Z,100.00
2023-02-11T14:26:03.464Z,100.00
2023-02-11T14:28:39.258Z,100.00
2023-02-11T14:31:06.256Z,100.00
2023-02-11T14:33:41.973Z,100.00
2023-02-11T14:36:23.149Z,100.00
2023-02-11T14:39:00.120Z,100.00
2023-02-11T14:41:30.931Z,100.00
2023-02-11T14:43:59.695Z,100.00
2023-02-11T14:46:37.012Z,100.00
2023-02-11T14:49:05.588Z,100.00
2023-02-11T14:51:35.040Z,100.00
2023-02-11T14:54:27.534Z,100.00
2023-02-11T14:57:09.363Z,100.00
2023-02-11T15:02:37.755Z,100.00
2023-02-11T15:05:33.633Z,100.00
2023-02-11T15:08:20.567Z,100.00
2023-02-11T15:10:53.186Z,100.00
2023-02-11T15:13:41.551Z,100.00
2023-02-11T15:19:53.401Z,100.00
2023-02-11T15:25:52.927Z,100.00
2023-02-11T15:28:29.904Z,100.00
2023-02-11T15:31:07.667Z,100.00
2023-02-11T15:33:34.578Z,100.00
2023-02-11T15:36:02.620Z,100.00
2023-02-11T15:38:30.351Z,100.00
2023-02-11T15:40:58.821Z,100.00
2023-02-11T15:43:27.521Z,100.00
2023-02-11T15:46:01.822Z,100.00
2023-02-11T15:48:44.574Z,100.00
2023-02-11T15:51:22.075Z,100.00
2023-02-11T15:53:57.086Z,100.00
2023-02-11T16:03:21.612Z,100.00
2023-02-11T16:05:48.311Z,100.00
2023-02-11T16:08:26.449Z,100.00
2023-02-11T16:11:11.329Z,100.00
2023-02-11T16:14:06.882Z,100.00
2023-02-11T16:19:57.815Z,100.00
2023-02-11T16:36:25.690Z,100.00
2023-02-11T16:38:54.887Z,100.00
2023-02-11T16:41:39.537Z,100.00
2023-02-11T16:51:14.158Z,100.00
2023-02-11T16:53:40.656Z,100.00
2023-02-11T16:56:10.252Z,100.00
2023-02-11T16:58:39.136Z,100.00
2023-02-11T17:01:06.613Z,100.00
2023-02-11T17:03:40.102Z,100.00
2023-02-11T17:06:10.534Z,100.00
2023-02-11T17:08:50.458Z,100.00
2023-02-11T17:11:24.584Z,100.00
2023-02-11T17:13:54.315Z,100.00
2023-02-11T17:16:22.693Z,100.00
2023-02-11T17:25:16.697Z,100.00
2023-02-11T17:27:52.934Z,100.00
2023-02-11T17:30:25.833Z,100.00
2023-02-11T17:32:58.955Z,100.00
2023-02-11T17:35:25.915Z,100.00
2023-02-11T17:38:23.141Z,100.00
2023-02-11T17:40:59.808Z,100.00
2023-02-11T17:43:28.705Z,100.00
2023-02-11T17:46:30.669Z,100.00
2023-02-11T17:52:29.576Z,100.00
2023-02-11T17:54:58.654Z,100.00
2023-02-11T17:57:28.236Z,100.00
2023-02-11T18:00:00.821Z,100.00
2023-02-11T18:09:34.388Z,100.00
2023-02-11T18:12:13.599Z,100.00
2023-02-11T18:14:46.278Z,100.00
2023-02-11T18:17:23.012Z,100.00
2023-02-11T18:19:55.562Z,100.00
2023-02-11T18:25:08.437Z,100.00
2023-02-11T18:27:41.910Z,100.00
2023-02-11T18:30:25.829Z,100.00
2023-02-11T18:33:00.682Z,100.00
2023-02-11T18:35:32.588Z,100.00
2023-02-11T18:38:08.495Z,100.00
2023-02-11T18:40:39.714Z,100.00
2023-02-11T18:46:34.232Z,100.00
2023-02-11T18:49:08.319Z,100.00
2023-02-11T18:51:40.237Z,100.00
2023-02-11T18:54:07.711Z,100.00
2023-02-11T18:56:41.402Z,100.00
2023-02-11T19:02:05.699Z,100.00
2023-02-11T19:11:55.002Z,100.00
2023-02-11T19:14:26.166Z,100.00
2023-02-11T19:17:40.181Z,100.00
2023-02-11T19:20:28.974Z,100.00
2023-02-11T19:23:03.658Z,100.00
2023-02-11T19:26:07.685Z,100.00
2023-02-11T20:04:44.610Z,100.00
2023-02-11T22:09:39.105Z,100.00
2023-02-11T22:28:57.873Z,100.00
2023-02-11T22:31:28.840Z,100.00
2023-02-11T22:34:01.459Z,100.00
2023-02-11T22:36:29.426Z,100.00
2023-02-11T22:38:56.157Z,100.00
2023-02-11T22:41:22.993Z,100.00
2023-02-11T22:43:49.518Z,100.00
2023-02-11T22:46:17.714Z,100.00
2023-02-11T22:48:44.806Z,100.00
2023-02-11T22:51:14.330Z,100.00
2023-02-11T22:53:41.183Z,100.00
2023-02-11T22:56:09.161Z,100.00
2023-02-11T22:58:36.015Z,100.00
2023-02-11T23:01:02.951Z,100.00
2023-02-11T23:03:31.594Z,100.00
2023-02-11T23:05:59.034Z,100.00
2023-02-11T23:08:26.149Z,100.00
2023-02-11T23:10:53.019Z,100.00
2023-02-11T23:13:19.972Z,100.00
2023-02-11T23:15:46.736Z,100.00
2023-02-11T23:18:13.626Z,100.00
2023-02-11T23:20:41.783Z,100.00
2023-02-11T23:23:08.466Z,100.00
2023-02-11T23:25:41.469Z,100.00
2023-02-11T23:28:08.500Z,100.00
2023-02-11T23:30:35.027Z,100.00
2023-02-11T23:33:01.387Z,100.00
2023-02-11T23:35:27.824Z,100.00
2023-02-11T23:37:54.259Z,100.00
2023-02-11T23:40:21.294Z,100.00
2023-02-11T23:42:49.126Z,100.00
2023-02-11T23:45:15.707Z,100.00
2023-02-11T23:47:45.271Z,100.00
2023-02-11T23:50:12.069Z,100.00
2023-02-11T23:52:38.641Z,100.00
2023-02-11T23:55:05.734Z,100.00
2023-02-11T23:57:33.138Z,100.00
2023-02-11T23:59:59.792Z,100.00
